Agat, Guam
Current Conditions -  °F | °C
As of 12:54 AM on Saturday 01 Nov 2014 (Local Time) from PGUM Reporting Station
Broken Clouds Broken Clouds  
Wind Chill: 78°   Ceiling: 4100
Heat Index: 81°   Visibility: 10mi
Dew Point: 76°   Wind: 0mph
Humidity: 93%   Direction: NA
Pressure: 29.8"   Gusts: NA
Location:  13.38°N, 144.65°E
Report Text: PGUM 311454Z 00000KT 10SM BKN041 26/24 A2980 RMK AO2 SLP084 60000 T02560244 58006
Loading
Personal Weather Stations






























Interactive Weather Map
Tropical Storm Tracking
New forecast layout! Learn more

10-Day Weather Forecast

Advertisements
Track Severe Weather on mobile